sensor_id;sensor_type;location;lat;lon;timestamp;P1;durP1;ratioP1;P2;durP2;ratioP2
13651;SDS011;6899;51.546;6.912;2022-12-07T00:01:46;47.27;;;30.33;;
13651;SDS011;6899;51.546;6.912;2022-12-07T00:04:14;51.17;;;30.13;;
13651;SDS011;6899;51.546;6.912;2022-12-07T00:06:43;56.23;;;31.57;;
13651;SDS011;6899;51.546;6.912;2022-12-07T00:09:12;50.33;;;31.00;;
13651;SDS011;6899;51.546;6.912;2022-12-07T00:11:41;55.30;;;33.63;;
13651;SDS011;6899;51.546;6.912;2022-12-07T00:14:09;58.77;;;34.20;;
13651;SDS011;6899;51.546;6.912;2022-12-07T00:16:39;56.60;;;34.73;;
13651;SDS011;6899;51.546;6.912;2022-12-07T00:19:05;55.77;;;32.80;;
13651;SDS011;6899;51.546;6.912;2022-12-07T00:21:33;56.10;;;33.88;;
13651;SDS011;6899;51.546;6.912;2022-12-07T00:24:04;55.90;;;33.45;;
13651;SDS011;6899;51.546;6.912;2022-12-07T00:26:37;59.63;;;34.17;;
13651;SDS011;6899;51.546;6.912;2022-12-07T00:29:05;65.80;;;35.67;;
13651;SDS011;6899;51.546;6.912;2022-12-07T00:31:34;58.13;;;34.70;;
13651;SDS011;6899;51.546;6.912;2022-12-07T00:34:06;60.37;;;35.93;;
13651;SDS011;6899;51.546;6.912;2022-12-07T00:36:37;61.97;;;37.73;;
13651;SDS011;6899;51.546;6.912;2022-12-07T00:39:08;60.03;;;36.87;;
13651;SDS011;6899;51.546;6.912;2022-12-07T00:41:37;60.70;;;35.73;;
13651;SDS011;6899;51.546;6.912;2022-12-07T00:44:03;63.50;;;38.13;;
13651;SDS011;6899;51.546;6.912;2022-12-07T00:46:30;66.47;;;37.70;;
13651;SDS011;6899;51.546;6.912;2022-12-07T00:48:57;61.47;;;38.00;;
13651;SDS011;6899;51.546;6.912;2022-12-07T00:51:27;67.50;;;38.73;;
13651;SDS011;6899;51.546;6.912;2022-12-07T00:53:53;65.87;;;40.50;;
13651;SDS011;6899;51.546;6.912;2022-12-07T00:56:21;69.18;;;40.08;;
13651;SDS011;6899;51.546;6.912;2022-12-07T00:58:51;64.85;;;37.83;;
13651;SDS011;6899;51.546;6.912;2022-12-07T01:01:19;67.22;;;38.13;;
13651;SDS011;6899;51.546;6.912;2022-12-07T01:03:46;62.63;;;39.13;;
13651;SDS011;6899;51.546;6.912;2022-12-07T01:06:14;63.53;;;38.60;;
13651;SDS011;6899;51.546;6.912;2022-12-07T01:08:41;63.37;;;37.63;;
13651;SDS011;6899;51.546;6.912;2022-12-07T01:11:09;62.47;;;36.72;;
13651;SDS011;6899;51.546;6.912;2022-12-07T01:13:39;65.03;;;37.47;;
13651;SDS011;6899;51.546;6.912;2022-12-07T01:16:08;63.88;;;35.83;;
13651;SDS011;6899;51.546;6.912;2022-12-07T01:18:37;65.07;;;37.63;;
13651;SDS011;6899;51.546;6.912;2022-12-07T01:21:05;62.25;;;37.25;;
13651;SDS011;6899;51.546;6.912;2022-12-07T01:23:33;57.27;;;35.17;;
13651;SDS011;6899;51.546;6.912;2022-12-07T01:26:04;59.97;;;35.63;;
13651;SDS011;6899;51.546;6.912;2022-12-07T01:28:32;62.50;;;38.28;;
13651;SDS011;6899;51.546;6.912;2022-12-07T01:31:00;60.90;;;37.53;;
13651;SDS011;6899;51.546;6.912;2022-12-07T01:33:30;62.42;;;37.88;;
13651;SDS011;6899;51.546;6.912;2022-12-07T01:36:02;70.80;;;38.22;;
13651;SDS011;6899;51.546;6.912;2022-12-07T01:38:29;60.08;;;36.15;;
13651;SDS011;6899;51.546;6.912;2022-12-07T01:40:57;62.58;;;36.72;;
13651;SDS011;6899;51.546;6.912;2022-12-07T01:43:25;57.30;;;35.40;;
13651;SDS011;6899;51.546;6.912;2022-12-07T01:45:54;58.53;;;34.57;;
13651;SDS011;6899;51.546;6.912;2022-12-07T01:48:22;59.47;;;35.50;;
13651;SDS011;6899;51.546;6.912;2022-12-07T01:50:55;57.13;;;34.92;;
13651;SDS011;6899;51.546;6.912;2022-12-07T01:53:26;59.72;;;34.35;;
13651;SDS011;6899;51.546;6.912;2022-12-07T01:55:56;54.10;;;33.87;;
13651;SDS011;6899;51.546;6.912;2022-12-07T01:58:23;60.80;;;35.25;;
13651;SDS011;6899;51.546;6.912;2022-12-07T02:00:51;56.67;;;34.58;;
13651;SDS011;6899;51.546;6.912;2022-12-07T02:03:18;61.97;;;35.57;;
13651;SDS011;6899;51.546;6.912;2022-12-07T02:05:49;61.83;;;36.00;;
13651;SDS011;6899;51.546;6.912;2022-12-07T02:08:18;61.07;;;37.80;;
13651;SDS011;6899;51.546;6.912;2022-12-07T02:10:46;58.13;;;34.83;;
13651;SDS011;6899;51.546;6.912;2022-12-07T02:13:14;61.80;;;35.60;;
13651;SDS011;6899;51.546;6.912;2022-12-07T02:18:38;60.97;;;36.03;;
13651;SDS011;6899;51.546;6.912;2022-12-07T02:21:14;56.77;;;34.87;;
13651;SDS011;6899;51.546;6.912;2022-12-07T02:24:06;58.57;;;36.17;;
13651;SDS011;6899;51.546;6.912;2022-12-07T02:29:49;90.93;;;49.80;;
13651;SDS011;6899;51.546;6.912;2022-12-07T02:32:24;61.60;;;36.03;;
13651;SDS011;6899;51.546;6.912;2022-12-07T02:34:55;63.40;;;38.53;;
13651;SDS011;6899;51.546;6.912;2022-12-07T02:37:29;57.50;;;34.33;;
13651;SDS011;6899;51.546;6.912;2022-12-07T02:40:04;67.40;;;38.57;;
13651;SDS011;6899;51.546;6.912;2022-12-07T02:42:36;67.33;;;39.80;;
13651;SDS011;6899;51.546;6.912;2022-12-07T02:45:09;59.13;;;36.23;;
13651;SDS011;6899;51.546;6.912;2022-12-07T02:47:39;62.23;;;35.93;;
13651;SDS011;6899;51.546;6.912;2022-12-07T02:50:07;58.17;;;34.67;;
13651;SDS011;6899;51.546;6.912;2022-12-07T02:52:35;61.17;;;36.70;;
13651;SDS011;6899;51.546;6.912;2022-12-07T02:55:02;57.67;;;34.67;;
13651;SDS011;6899;51.546;6.912;2022-12-07T02:57:34;59.77;;;35.10;;
13651;SDS011;6899;51.546;6.912;2022-12-07T03:00:15;67.57;;;35.60;;
13651;SDS011;6899;51.546;6.912;2022-12-07T03:02:48;56.07;;;33.60;;
13651;SDS011;6899;51.546;6.912;2022-12-07T03:05:23;61.40;;;34.27;;
13651;SDS011;6899;51.546;6.912;2022-12-07T03:08:19;64.43;;;35.90;;
13651;SDS011;6899;51.546;6.912;2022-12-07T03:10:54;61.80;;;34.50;;
13651;SDS011;6899;51.546;6.912;2022-12-07T03:13:25;54.80;;;33.43;;
13651;SDS011;6899;51.546;6.912;2022-12-07T03:16:00;61.33;;;34.77;;
13651;SDS011;6899;51.546;6.912;2022-12-07T03:18:32;64.20;;;36.30;;
13651;SDS011;6899;51.546;6.912;2022-12-07T03:21:05;66.23;;;34.57;;
13651;SDS011;6899;51.546;6.912;2022-12-07T03:23:37;62.33;;;35.40;;
13651;SDS011;6899;51.546;6.912;2022-12-07T03:26:08;57.63;;;34.37;;
13651;SDS011;6899;51.546;6.912;2022-12-07T03:28:38;62.70;;;35.50;;
13651;SDS011;6899;51.546;6.912;2022-12-07T03:31:11;60.37;;;33.80;;
13651;SDS011;6899;51.546;6.912;2022-12-07T03:33:44;61.30;;;34.03;;
13651;SDS011;6899;51.546;6.912;2022-12-07T03:36:19;62.40;;;36.37;;
13651;SDS011;6899;51.546;6.912;2022-12-07T03:38:55;60.53;;;33.87;;
13651;SDS011;6899;51.546;6.912;2022-12-07T03:41:28;62.50;;;34.13;;
13651;SDS011;6899;51.546;6.912;2022-12-07T03:43:57;67.47;;;35.90;;
13651;SDS011;6899;51.546;6.912;2022-12-07T03:46:29;63.30;;;35.83;;
13651;SDS011;6899;51.546;6.912;2022-12-07T03:49:04;69.93;;;36.40;;
13651;SDS011;6899;51.546;6.912;2022-12-07T03:51:37;61.03;;;35.63;;
13651;SDS011;6899;51.546;6.912;2022-12-07T03:54:09;62.33;;;36.03;;
13651;SDS011;6899;51.546;6.912;2022-12-07T03:56:39;60.30;;;34.70;;
13651;SDS011;6899;51.546;6.912;2022-12-07T03:59:08;61.07;;;34.77;;
13651;SDS011;6899;51.546;6.912;2022-12-07T04:01:38;61.10;;;35.07;;
13651;SDS011;6899;51.546;6.912;2022-12-07T04:04:07;64.07;;;34.47;;
13651;SDS011;6899;51.546;6.912;2022-12-07T04:06:33;67.13;;;34.50;;
13651;SDS011;6899;51.546;6.912;2022-12-07T04:09:00;66.13;;;36.27;;
13651;SDS011;6899;51.546;6.912;2022-12-07T04:11:30;68.63;;;36.90;;
13651;SDS011;6899;51.546;6.912;2022-12-07T04:13:57;66.47;;;36.17;;
13651;SDS011;6899;51.546;6.912;2022-12-07T04:16:42;66.37;;;35.93;;
13651;SDS011;6899;51.546;6.912;2022-12-07T04:19:09;65.80;;;35.57;;
13651;SDS011;6899;51.546;6.912;2022-12-07T04:21:36;60.77;;;33.93;;
13651;SDS011;6899;51.546;6.912;2022-12-07T04:24:03;66.67;;;36.30;;
13651;SDS011;6899;51.546;6.912;2022-12-07T04:26:30;66.90;;;34.67;;
13651;SDS011;6899;51.546;6.912;2022-12-07T04:28:57;65.43;;;35.40;;
13651;SDS011;6899;51.546;6.912;2022-12-07T04:31:24;65.70;;;34.63;;
13651;SDS011;6899;51.546;6.912;2022-12-07T04:33:52;63.47;;;35.13;;
13651;SDS011;6899;51.546;6.912;2022-12-07T04:36:19;64.83;;;35.37;;
13651;SDS011;6899;51.546;6.912;2022-12-07T04:38:45;60.87;;;33.60;;
13651;SDS011;6899;51.546;6.912;2022-12-07T04:41:12;61.27;;;34.23;;
13651;SDS011;6899;51.546;6.912;2022-12-07T04:43:39;69.57;;;37.83;;
13651;SDS011;6899;51.546;6.912;2022-12-07T04:46:09;67.50;;;36.53;;
13651;SDS011;6899;51.546;6.912;2022-12-07T04:48:36;63.30;;;34.87;;
13651;SDS011;6899;51.546;6.912;2022-12-07T04:51:04;69.60;;;36.03;;
13651;SDS011;6899;51.546;6.912;2022-12-07T04:53:31;74.53;;;37.70;;
13651;SDS011;6899;51.546;6.912;2022-12-07T04:55:58;66.67;;;36.90;;
13651;SDS011;6899;51.546;6.912;2022-12-07T04:58:26;68.57;;;37.53;;
13651;SDS011;6899;51.546;6.912;2022-12-07T05:00:54;72.60;;;39.17;;
13651;SDS011;6899;51.546;6.912;2022-12-07T05:03:21;86.07;;;40.47;;
13651;SDS011;6899;51.546;6.912;2022-12-07T05:05:48;80.93;;;40.40;;
13651;SDS011;6899;51.546;6.912;2022-12-07T05:08:16;78.10;;;39.83;;
13651;SDS011;6899;51.546;6.912;2022-12-07T05:10:42;84.07;;;41.03;;
13651;SDS011;6899;51.546;6.912;2022-12-07T05:13:10;75.37;;;38.60;;
13651;SDS011;6899;51.546;6.912;2022-12-07T05:15:37;78.13;;;40.43;;
13651;SDS011;6899;51.546;6.912;2022-12-07T05:18:04;77.90;;;39.50;;
13651;SDS011;6899;51.546;6.912;2022-12-07T05:20:31;75.87;;;37.80;;
13651;SDS011;6899;51.546;6.912;2022-12-07T05:22:58;78.37;;;39.53;;
13651;SDS011;6899;51.546;6.912;2022-12-07T05:25:26;80.73;;;40.50;;
13651;SDS011;6899;51.546;6.912;2022-12-07T05:27:54;81.60;;;40.20;;
13651;SDS011;6899;51.546;6.912;2022-12-07T05:30:21;77.00;;;39.33;;
13651;SDS011;6899;51.546;6.912;2022-12-07T05:32:48;78.47;;;39.00;;
13651;SDS011;6899;51.546;6.912;2022-12-07T05:35:15;75.60;;;39.10;;
13651;SDS011;6899;51.546;6.912;2022-12-07T05:37:42;80.67;;;40.03;;
13651;SDS011;6899;51.546;6.912;2022-12-07T05:40:09;83.10;;;39.37;;
13651;SDS011;6899;51.546;6.912;2022-12-07T05:42:38;88.40;;;42.57;;
13651;SDS011;6899;51.546;6.912;2022-12-07T05:45:06;83.23;;;39.07;;
13651;SDS011;6899;51.546;6.912;2022-12-07T05:47:36;78.73;;;40.13;;
13651;SDS011;6899;51.546;6.912;2022-12-07T05:50:10;79.83;;;39.37;;
13651;SDS011;6899;51.546;6.912;2022-12-07T05:52:42;74.97;;;39.33;;
13651;SDS011;6899;51.546;6.912;2022-12-07T05:55:09;71.90;;;38.63;;
13651;SDS011;6899;51.546;6.912;2022-12-07T05:57:36;72.60;;;36.70;;
13651;SDS011;6899;51.546;6.912;2022-12-07T06:00:08;69.03;;;35.70;;
13651;SDS011;6899;51.546;6.912;2022-12-07T06:02:35;70.67;;;34.40;;
13651;SDS011;6899;51.546;6.912;2022-12-07T06:05:02;62.20;;;33.00;;
13651;SDS011;6899;51.546;6.912;2022-12-07T06:07:29;67.37;;;34.47;;
13651;SDS011;6899;51.546;6.912;2022-12-07T06:09:55;64.03;;;34.13;;
13651;SDS011;6899;51.546;6.912;2022-12-07T06:12:23;73.23;;;36.63;;
13651;SDS011;6899;51.546;6.912;2022-12-07T06:15:03;73.40;;;36.93;;
13651;SDS011;6899;51.546;6.912;2022-12-07T06:17:31;74.20;;;37.93;;
13651;SDS011;6899;51.546;6.912;2022-12-07T06:19:58;71.67;;;36.27;;
13651;SDS011;6899;51.546;6.912;2022-12-07T06:22:25;68.27;;;36.70;;
13651;SDS011;6899;51.546;6.912;2022-12-07T06:24:52;75.37;;;38.40;;
13651;SDS011;6899;51.546;6.912;2022-12-07T06:27:18;71.57;;;36.80;;
13651;SDS011;6899;51.546;6.912;2022-12-07T06:29:45;78.53;;;35.83;;
13651;SDS011;6899;51.546;6.912;2022-12-07T06:32:12;69.57;;;36.33;;
13651;SDS011;6899;51.546;6.912;2022-12-07T06:34:40;69.43;;;33.83;;
13651;SDS011;6899;51.546;6.912;2022-12-07T06:37:07;59.07;;;32.03;;
13651;SDS011;6899;51.546;6.912;2022-12-07T06:39:34;64.73;;;35.40;;
13651;SDS011;6899;51.546;6.912;2022-12-07T06:42:01;57.60;;;32.17;;
13651;SDS011;6899;51.546;6.912;2022-12-07T06:44:28;57.10;;;31.20;;
13651;SDS011;6899;51.546;6.912;2022-12-07T06:46:55;53.67;;;29.07;;
13651;SDS011;6899;51.546;6.912;2022-12-07T06:49:21;50.53;;;26.80;;
13651;SDS011;6899;51.546;6.912;2022-12-07T06:51:50;48.63;;;25.90;;
13651;SDS011;6899;51.546;6.912;2022-12-07T06:54:16;47.60;;;25.60;;
13651;SDS011;6899;51.546;6.912;2022-12-07T06:56:43;54.83;;;27.67;;
13651;SDS011;6899;51.546;6.912;2022-12-07T06:59:10;55.53;;;28.30;;
13651;SDS011;6899;51.546;6.912;2022-12-07T07:01:37;57.17;;;28.13;;
13651;SDS011;6899;51.546;6.912;2022-12-07T07:04:03;46.60;;;26.13;;
13651;SDS011;6899;51.546;6.912;2022-12-07T07:06:30;52.33;;;27.00;;
13651;SDS011;6899;51.546;6.912;2022-12-07T07:08:58;47.00;;;25.83;;
13651;SDS011;6899;51.546;6.912;2022-12-07T07:11:25;50.33;;;26.83;;
13651;SDS011;6899;51.546;6.912;2022-12-07T07:13:52;49.60;;;27.07;;
13651;SDS011;6899;51.546;6.912;2022-12-07T07:16:21;62.37;;;30.60;;
13651;SDS011;6899;51.546;6.912;2022-12-07T07:18:49;57.50;;;28.93;;
13651;SDS011;6899;51.546;6.912;2022-12-07T07:21:15;54.60;;;27.93;;
13651;SDS011;6899;51.546;6.912;2022-12-07T07:23:42;56.10;;;28.03;;
13651;SDS011;6899;51.546;6.912;2022-12-07T07:26:10;56.83;;;29.63;;
13651;SDS011;6899;51.546;6.912;2022-12-07T07:28:37;57.03;;;30.20;;
13651;SDS011;6899;51.546;6.912;2022-12-07T07:31:04;67.77;;;33.73;;
13651;SDS011;6899;51.546;6.912;2022-12-07T07:33:31;67.07;;;33.40;;
13651;SDS011;6899;51.546;6.912;2022-12-07T07:35:58;66.00;;;32.80;;
13651;SDS011;6899;51.546;6.912;2022-12-07T07:38:24;60.97;;;32.93;;
13651;SDS011;6899;51.546;6.912;2022-12-07T07:40:51;70.00;;;33.43;;
13651;SDS011;6899;51.546;6.912;2022-12-07T07:43:19;69.80;;;32.27;;
13651;SDS011;6899;51.546;6.912;2022-12-07T07:45:46;62.07;;;30.27;;
13651;SDS011;6899;51.546;6.912;2022-12-07T07:48:13;56.73;;;30.23;;
13651;SDS011;6899;51.546;6.912;2022-12-07T07:50:39;63.77;;;30.30;;
13651;SDS011;6899;51.546;6.912;2022-12-07T07:53:06;63.83;;;31.20;;
13651;SDS011;6899;51.546;6.912;2022-12-07T07:55:34;65.67;;;31.43;;
13651;SDS011;6899;51.546;6.912;2022-12-07T07:58:01;65.77;;;32.17;;
13651;SDS011;6899;51.546;6.912;2022-12-07T08:00:29;64.60;;;30.77;;
13651;SDS011;6899;51.546;6.912;2022-12-07T08:02:56;55.43;;;31.03;;
13651;SDS011;6899;51.546;6.912;2022-12-07T08:05:22;55.80;;;29.00;;
13651;SDS011;6899;51.546;6.912;2022-12-07T08:07:52;60.10;;;29.80;;
13651;SDS011;6899;51.546;6.912;2022-12-07T08:10:19;57.97;;;30.63;;
13651;SDS011;6899;51.546;6.912;2022-12-07T08:12:45;53.73;;;28.63;;
13651;SDS011;6899;51.546;6.912;2022-12-07T08:15:31;59.00;;;29.93;;
13651;SDS011;6899;51.546;6.912;2022-12-07T08:17:58;60.07;;;28.67;;
13651;SDS011;6899;51.546;6.912;2022-12-07T08:20:29;54.93;;;28.27;;
13651;SDS011;6899;51.546;6.912;2022-12-07T08:22:56;54.33;;;26.33;;
13651;SDS011;6899;51.546;6.912;2022-12-07T08:25:23;55.17;;;25.83;;
13651;SDS011;6899;51.546;6.912;2022-12-07T08:27:51;49.10;;;25.53;;
13651;SDS011;6899;51.546;6.912;2022-12-07T08:30:18;50.90;;;25.43;;
13651;SDS011;6899;51.546;6.912;2022-12-07T08:32:47;46.90;;;23.90;;
13651;SDS011;6899;51.546;6.912;2022-12-07T08:35:15;52.90;;;24.90;;
13651;SDS011;6899;51.546;6.912;2022-12-07T08:37:45;48.10;;;24.47;;
13651;SDS011;6899;51.546;6.912;2022-12-07T08:40:12;49.30;;;24.70;;
13651;SDS011;6899;51.546;6.912;2022-12-07T08:42:44;49.23;;;23.47;;
13651;SDS011;6899;51.546;6.912;2022-12-07T08:45:15;50.27;;;24.43;;
13651;SDS011;6899;51.546;6.912;2022-12-07T08:47:44;53.40;;;25.33;;
13651;SDS011;6899;51.546;6.912;2022-12-07T08:50:15;47.53;;;24.13;;
13651;SDS011;6899;51.546;6.912;2022-12-07T08:52:43;44.57;;;22.50;;
13651;SDS011;6899;51.546;6.912;2022-12-07T08:55:10;43.67;;;24.07;;
13651;SDS011;6899;51.546;6.912;2022-12-07T08:57:38;42.67;;;22.53;;
13651;SDS011;6899;51.546;6.912;2022-12-07T09:00:06;54.90;;;25.10;;
13651;SDS011;6899;51.546;6.912;2022-12-07T09:02:34;45.40;;;23.27;;
13651;SDS011;6899;51.546;6.912;2022-12-07T09:05:03;52.23;;;24.60;;
13651;SDS011;6899;51.546;6.912;2022-12-07T09:07:30;53.20;;;25.57;;
13651;SDS011;6899;51.546;6.912;2022-12-07T09:09:59;54.33;;;24.70;;
13651;SDS011;6899;51.546;6.912;2022-12-07T09:12:26;50.10;;;24.47;;
13651;SDS011;6899;51.546;6.912;2022-12-07T09:14:53;48.00;;;24.23;;
13651;SDS011;6899;51.546;6.912;2022-12-07T09:17:20;45.40;;;23.53;;
13651;SDS011;6899;51.546;6.912;2022-12-07T09:19:47;45.93;;;24.43;;
13651;SDS011;6899;51.546;6.912;2022-12-07T09:22:15;49.63;;;24.57;;
13651;SDS011;6899;51.546;6.912;2022-12-07T09:24:42;42.10;;;23.37;;
13651;SDS011;6899;51.546;6.912;2022-12-07T09:27:10;45.03;;;22.93;;
13651;SDS011;6899;51.546;6.912;2022-12-07T09:29:37;43.63;;;22.33;;
13651;SDS011;6899;51.546;6.912;2022-12-07T09:32:04;41.25;;;22.77;;
13651;SDS011;6899;51.546;6.912;2022-12-07T09:34:31;37.83;;;21.73;;
13651;SDS011;6899;51.546;6.912;2022-12-07T09:36:58;40.30;;;21.93;;
13651;SDS011;6899;51.546;6.912;2022-12-07T09:39:29;38.73;;;20.83;;
13651;SDS011;6899;51.546;6.912;2022-12-07T09:41:56;45.10;;;21.27;;
13651;SDS011;6899;51.546;6.912;2022-12-07T09:44:29;41.73;;;20.83;;
13651;SDS011;6899;51.546;6.912;2022-12-07T09:46:59;40.70;;;20.40;;
13651;SDS011;6899;51.546;6.912;2022-12-07T09:49:33;36.58;;;19.80;;
13651;SDS011;6899;51.546;6.912;2022-12-07T09:52:00;35.42;;;20.45;;
13651;SDS011;6899;51.546;6.912;2022-12-07T09:54:29;32.15;;;18.17;;
13651;SDS011;6899;51.546;6.912;2022-12-07T09:56:57;35.20;;;16.77;;
13651;SDS011;6899;51.546;6.912;2022-12-07T09:59:24;31.60;;;17.15;;
13651;SDS011;6899;51.546;6.912;2022-12-07T10:01:51;30.13;;;15.63;;
13651;SDS011;6899;51.546;6.912;2022-12-07T10:04:18;26.70;;;15.43;;
13651;SDS011;6899;51.546;6.912;2022-12-07T10:06:47;29.08;;;16.27;;
13651;SDS011;6899;51.546;6.912;2022-12-07T10:09:16;29.80;;;15.23;;
13651;SDS011;6899;51.546;6.912;2022-12-07T10:11:59;24.65;;;14.48;;
13651;SDS011;6899;51.546;6.912;2022-12-07T10:14:31;31.88;;;15.10;;
13651;SDS011;6899;51.546;6.912;2022-12-07T10:17:00;26.58;;;13.95;;
13651;SDS011;6899;51.546;6.912;2022-12-07T10:19:29;24.45;;;13.40;;
13651;SDS011;6899;51.546;6.912;2022-12-07T10:22:02;23.67;;;13.98;;
13651;SDS011;6899;51.546;6.912;2022-12-07T10:24:36;22.92;;;12.32;;
13651;SDS011;6899;51.546;6.912;2022-12-07T10:27:17;17.83;;;11.75;;
13651;SDS011;6899;51.546;6.912;2022-12-07T10:29:47;22.05;;;10.68;;
13651;SDS011;6899;51.546;6.912;2022-12-07T10:32:28;21.92;;;10.27;;
13651;SDS011;6899;51.546;6.912;2022-12-07T10:37:46;16.63;;;9.05;;
13651;SDS011;6899;51.546;6.912;2022-12-07T10:40:24;18.77;;;9.13;;
13651;SDS011;6899;51.546;6.912;2022-12-07T10:43:13;17.00;;;9.35;;
13651;SDS011;6899;51.546;6.912;2022-12-07T10:45:54;17.15;;;10.07;;
13651;SDS011;6899;51.546;6.912;2022-12-07T10:48:33;17.17;;;7.78;;
13651;SDS011;6899;51.546;6.912;2022-12-07T10:51:10;15.35;;;7.13;;
13651;SDS011;6899;51.546;6.912;2022-12-07T10:53:48;13.80;;;7.18;;
13651;SDS011;6899;51.546;6.912;2022-12-07T10:56:39;14.55;;;6.72;;
13651;SDS011;6899;51.546;6.912;2022-12-07T10:59:23;13.93;;;6.72;;
13651;SDS011;6899;51.546;6.912;2022-12-07T11:02:08;15.95;;;6.82;;
13651;SDS011;6899;51.546;6.912;2022-12-07T11:04:51;9.60;;;6.18;;
13651;SDS011;6899;51.546;6.912;2022-12-07T11:07:30;11.20;;;6.05;;
13651;SDS011;6899;51.546;6.912;2022-12-07T11:10:07;12.00;;;6.20;;
13651;SDS011;6899;51.546;6.912;2022-12-07T11:12:51;12.20;;;6.20;;
13651;SDS011;6899;51.546;6.912;2022-12-07T11:15:36;14.00;;;6.38;;
13651;SDS011;6899;51.546;6.912;2022-12-07T11:18:16;12.70;;;5.90;;
13651;SDS011;6899;51.546;6.912;2022-12-07T11:20:51;10.00;;;5.20;;
13651;SDS011;6899;51.546;6.912;2022-12-07T11:23:26;16.52;;;5.65;;
13651;SDS011;6899;51.546;6.912;2022-12-07T11:26:10;10.80;;;5.07;;
13651;SDS011;6899;51.546;6.912;2022-12-07T11:28:53;10.60;;;7.20;;
13651;SDS011;6899;51.546;6.912;2022-12-07T11:31:46;9.57;;;5.13;;
13651;SDS011;6899;51.546;6.912;2022-12-07T11:34:23;11.93;;;4.38;;
13651;SDS011;6899;51.546;6.912;2022-12-07T11:36:56;10.13;;;4.18;;
13651;SDS011;6899;51.546;6.912;2022-12-07T11:39:25;9.93;;;4.25;;
13651;SDS011;6899;51.546;6.912;2022-12-07T11:41:55;7.97;;;3.65;;
13651;SDS011;6899;51.546;6.912;2022-12-07T11:44:30;6.43;;;3.38;;
13651;SDS011;6899;51.546;6.912;2022-12-07T11:47:05;7.55;;;4.20;;
13651;SDS011;6899;51.546;6.912;2022-12-07T11:49:37;6.20;;;3.92;;
13651;SDS011;6899;51.546;6.912;2022-12-07T11:52:11;5.15;;;3.30;;
13651;SDS011;6899;51.546;6.912;2022-12-07T11:54:43;4.78;;;3.15;;
13651;SDS011;6899;51.546;6.912;2022-12-07T11:57:14;10.20;;;3.80;;
13651;SDS011;6899;51.546;6.912;2022-12-07T11:59:47;6.18;;;3.17;;
13651;SDS011;6899;51.546;6.912;2022-12-07T12:02:20;4.35;;;3.03;;
13651;SDS011;6899;51.546;6.912;2022-12-07T12:04:55;10.07;;;3.60;;
13651;SDS011;6899;51.546;6.912;2022-12-07T12:07:29;9.55;;;3.13;;
13651;SDS011;6899;51.546;6.912;2022-12-07T12:09:58;7.40;;;4.43;;
13651;SDS011;6899;51.546;6.912;2022-12-07T12:12:36;11.57;;;2.88;;
13651;SDS011;6899;51.546;6.912;2022-12-07T12:15:20;8.45;;;3.22;;
13651;SDS011;6899;51.546;6.912;2022-12-07T12:21:12;7.15;;;4.00;;
13651;SDS011;6899;51.546;6.912;2022-12-07T12:23:43;5.95;;;3.17;;
13651;SDS011;6899;51.546;6.912;2022-12-07T12:26:14;6.70;;;4.07;;
13651;SDS011;6899;51.546;6.912;2022-12-07T12:28:49;8.00;;;3.60;;
13651;SDS011;6899;51.546;6.912;2022-12-07T12:31:29;9.55;;;3.83;;
13651;SDS011;6899;51.546;6.912;2022-12-07T12:34:10;7.05;;;4.10;;
13651;SDS011;6899;51.546;6.912;2022-12-07T12:37:07;6.57;;;3.92;;
13651;SDS011;6899;51.546;6.912;2022-12-07T12:42:59;7.72;;;3.83;;
13651;SDS011;6899;51.546;6.912;2022-12-07T12:45:26;9.82;;;3.85;;
13651;SDS011;6899;51.546;6.912;2022-12-07T12:47:55;7.57;;;4.38;;
13651;SDS011;6899;51.546;6.912;2022-12-07T12:50:28;9.43;;;4.53;;
13651;SDS011;6899;51.546;6.912;2022-12-07T12:53:02;7.32;;;3.97;;
13651;SDS011;6899;51.546;6.912;2022-12-07T12:55:48;7.38;;;4.55;;
13651;SDS011;6899;51.546;6.912;2022-12-07T12:58:35;9.80;;;4.03;;
13651;SDS011;6899;51.546;6.912;2022-12-07T13:04:17;8.10;;;4.50;;
13651;SDS011;6899;51.546;6.912;2022-12-07T13:07:13;8.20;;;3.70;;
13651;SDS011;6899;51.546;6.912;2022-12-07T13:10:20;10.32;;;3.60;;
13651;SDS011;6899;51.546;6.912;2022-12-07T13:12:56;6.57;;;3.25;;
13651;SDS011;6899;51.546;6.912;2022-12-07T13:18:22;8.10;;;3.47;;
13651;SDS011;6899;51.546;6.912;2022-12-07T13:20:54;9.63;;;3.63;;
13651;SDS011;6899;51.546;6.912;2022-12-07T13:23:30;6.38;;;3.38;;
13651;SDS011;6899;51.546;6.912;2022-12-07T13:26:04;9.75;;;3.85;;
13651;SDS011;6899;51.546;6.912;2022-12-07T13:28:43;7.80;;;3.40;;
13651;SDS011;6899;51.546;6.912;2022-12-07T13:31:13;6.03;;;3.60;;
13651;SDS011;6899;51.546;6.912;2022-12-07T13:33:59;8.55;;;3.67;;
13651;SDS011;6899;51.546;6.912;2022-12-07T13:36:27;7.22;;;3.70;;
13651;SDS011;6899;51.546;6.912;2022-12-07T13:38:58;8.93;;;4.10;;
13651;SDS011;6899;51.546;6.912;2022-12-07T13:41:26;9.45;;;5.43;;
13651;SDS011;6899;51.546;6.912;2022-12-07T13:43:59;12.38;;;5.28;;
13651;SDS011;6899;51.546;6.912;2022-12-07T13:46:31;5.53;;;3.22;;
13651;SDS011;6899;51.546;6.912;2022-12-07T13:49:13;7.45;;;4.63;;
13651;SDS011;6899;51.546;6.912;2022-12-07T13:51:44;8.15;;;4.30;;
13651;SDS011;6899;51.546;6.912;2022-12-07T13:54:13;9.30;;;4.60;;
13651;SDS011;6899;51.546;6.912;2022-12-07T13:56:41;8.57;;;4.30;;
13651;SDS011;6899;51.546;6.912;2022-12-07T13:59:12;8.60;;;4.50;;
13651;SDS011;6899;51.546;6.912;2022-12-07T14:01:40;11.00;;;4.53;;
13651;SDS011;6899;51.546;6.912;2022-12-07T14:04:31;11.95;;;4.30;;
13651;SDS011;6899;51.546;6.912;2022-12-07T14:07:00;8.95;;;4.40;;
13651;SDS011;6899;51.546;6.912;2022-12-07T14:09:52;8.80;;;4.73;;
13651;SDS011;6899;51.546;6.912;2022-12-07T14:12:24;7.75;;;5.00;;
13651;SDS011;6899;51.546;6.912;2022-12-07T14:14:51;10.30;;;4.67;;
13651;SDS011;6899;51.546;6.912;2022-12-07T14:17:20;11.00;;;5.05;;
13651;SDS011;6899;51.546;6.912;2022-12-07T14:19:49;11.25;;;5.18;;
13651;SDS011;6899;51.546;6.912;2022-12-07T14:22:22;12.13;;;5.32;;
13651;SDS011;6899;51.546;6.912;2022-12-07T14:27:50;12.70;;;6.47;;
13651;SDS011;6899;51.546;6.912;2022-12-07T14:30:21;11.90;;;5.73;;
13651;SDS011;6899;51.546;6.912;2022-12-07T14:32:50;12.57;;;9.33;;
13651;SDS011;6899;51.546;6.912;2022-12-07T14:35:19;9.63;;;6.27;;
13651;SDS011;6899;51.546;6.912;2022-12-07T14:37:49;13.80;;;7.13;;
13651;SDS011;6899;51.546;6.912;2022-12-07T14:40:19;16.13;;;7.57;;
13651;SDS011;6899;51.546;6.912;2022-12-07T14:42:48;11.93;;;7.27;;
13651;SDS011;6899;51.546;6.912;2022-12-07T14:45:18;9.67;;;5.37;;
13651;SDS011;6899;51.546;6.912;2022-12-07T14:47:47;9.97;;;6.20;;
13651;SDS011;6899;51.546;6.912;2022-12-07T14:50:18;15.37;;;7.10;;
13651;SDS011;6899;51.546;6.912;2022-12-07T14:52:47;13.20;;;5.13;;
13651;SDS011;6899;51.546;6.912;2022-12-07T14:55:20;11.60;;;5.40;;
13651;SDS011;6899;51.546;6.912;2022-12-07T14:57:49;8.97;;;5.27;;
13651;SDS011;6899;51.546;6.912;2022-12-07T15:00:17;12.47;;;6.30;;
13651;SDS011;6899;51.546;6.912;2022-12-07T15:02:45;14.23;;;6.07;;
13651;SDS011;6899;51.546;6.912;2022-12-07T15:05:13;12.30;;;5.47;;
13651;SDS011;6899;51.546;6.912;2022-12-07T15:07:40;11.67;;;5.90;;
13651;SDS011;6899;51.546;6.912;2022-12-07T15:10:09;9.23;;;5.10;;
13651;SDS011;6899;51.546;6.912;2022-12-07T15:12:42;14.03;;;5.50;;
13651;SDS011;6899;51.546;6.912;2022-12-07T15:15:09;12.80;;;5.67;;
13651;SDS011;6899;51.546;6.912;2022-12-07T15:17:40;8.30;;;5.10;;
13651;SDS011;6899;51.546;6.912;2022-12-07T15:20:08;9.23;;;5.03;;
13651;SDS011;6899;51.546;6.912;2022-12-07T15:22:37;10.40;;;6.57;;
13651;SDS011;6899;51.546;6.912;2022-12-07T15:25:04;11.83;;;5.83;;
13651;SDS011;6899;51.546;6.912;2022-12-07T15:27:31;14.57;;;6.63;;